sensor_id;sensor_type;location;lat;lon;timestamp;P1;durP1;ratioP1;P2;durP2;ratioP2
60006;SDS011;45863;50.336;3.536;2023-08-06T00:00:14;17.52;;;4.82;;
60006;SDS011;45863;50.336;3.536;2023-08-06T00:02:39;17.70;;;4.67;;
60006;SDS011;45863;50.336;3.536;2023-08-06T00:05:04;14.35;;;4.25;;
60006;SDS011;45863;50.336;3.536;2023-08-06T00:07:30;12.95;;;4.13;;
60006;SDS011;45863;50.336;3.536;2023-08-06T00:09:55;9.95;;;4.20;;
60006;SDS011;45863;50.336;3.536;2023-08-06T00:12:20;9.77;;;3.45;;
60006;SDS011;45863;50.336;3.536;2023-08-06T00:14:49;10.67;;;3.17;;
60006;SDS011;45863;50.336;3.536;2023-08-06T00:17:14;11.07;;;3.47;;
60006;SDS011;45863;50.336;3.536;2023-08-06T00:19:40;9.33;;;3.10;;
60006;SDS011;45863;50.336;3.536;2023-08-06T00:22:05;11.32;;;3.92;;
60006;SDS011;45863;50.336;3.536;2023-08-06T00:24:30;9.52;;;3.33;;
60006;SDS011;45863;50.336;3.536;2023-08-06T00:26:55;10.88;;;3.38;;
60006;SDS011;45863;50.336;3.536;2023-08-06T00:29:20;10.07;;;3.07;;
60006;SDS011;45863;50.336;3.536;2023-08-06T00:31:46;9.10;;;3.07;;
60006;SDS011;45863;50.336;3.536;2023-08-06T00:34:11;9.13;;;2.50;;
60006;SDS011;45863;50.336;3.536;2023-08-06T00:36:36;9.70;;;2.53;;
60006;SDS011;45863;50.336;3.536;2023-08-06T00:39:01;12.30;;;2.57;;
60006;SDS011;45863;50.336;3.536;2023-08-06T00:41:27;7.15;;;2.45;;
60006;SDS011;45863;50.336;3.536;2023-08-06T00:43:52;11.23;;;2.45;;
60006;SDS011;45863;50.336;3.536;2023-08-06T00:46:18;7.95;;;2.33;;
60006;SDS011;45863;50.336;3.536;2023-08-06T00:48:43;8.80;;;2.08;;
60006;SDS011;45863;50.336;3.536;2023-08-06T00:51:09;9.95;;;2.40;;
60006;SDS011;45863;50.336;3.536;2023-08-06T00:53:35;15.55;;;2.50;;
60006;SDS011;45863;50.336;3.536;2023-08-06T00:56:00;13.30;;;2.97;;
60006;SDS011;45863;50.336;3.536;2023-08-06T00:58:25;10.70;;;3.20;;
60006;SDS011;45863;50.336;3.536;2023-08-06T01:00:51;12.00;;;2.17;;
60006;SDS011;45863;50.336;3.536;2023-08-06T01:03:16;7.25;;;2.25;;
60006;SDS011;45863;50.336;3.536;2023-08-06T01:05:41;11.50;;;2.60;;
60006;SDS011;45863;50.336;3.536;2023-08-06T01:11:01;14.10;;;3.17;;
60006;SDS011;45863;50.336;3.536;2023-08-06T01:13:36;14.05;;;2.85;;
60006;SDS011;45863;50.336;3.536;2023-08-06T01:16:03;12.05;;;2.17;;
60006;SDS011;45863;50.336;3.536;2023-08-06T01:18:28;14.45;;;2.70;;
60006;SDS011;45863;50.336;3.536;2023-08-06T01:20:53;14.48;;;2.83;;
60006;SDS011;45863;50.336;3.536;2023-08-06T01:23:19;12.73;;;3.40;;
60006;SDS011;45863;50.336;3.536;2023-08-06T01:31:21;13.05;;;3.88;;
60006;SDS011;45863;50.336;3.536;2023-08-06T01:33:47;12.82;;;4.07;;
60006;SDS011;45863;50.336;3.536;2023-08-06T01:36:13;16.35;;;4.80;;
60006;SDS011;45863;50.336;3.536;2023-08-06T01:38:40;12.88;;;3.70;;
60006;SDS011;45863;50.336;3.536;2023-08-06T01:41:05;11.93;;;3.95;;
60006;SDS011;45863;50.336;3.536;2023-08-06T01:43:30;13.90;;;3.93;;
60006;SDS011;45863;50.336;3.536;2023-08-06T01:45:56;15.50;;;4.40;;
60006;SDS011;45863;50.336;3.536;2023-08-06T01:48:21;10.82;;;3.65;;
60006;SDS011;45863;50.336;3.536;2023-08-06T01:50:46;9.32;;;3.45;;
60006;SDS011;45863;50.336;3.536;2023-08-06T01:53:11;12.10;;;3.40;;
60006;SDS011;45863;50.336;3.536;2023-08-06T01:55:36;8.90;;;3.65;;
60006;SDS011;45863;50.336;3.536;2023-08-06T01:58:02;13.57;;;4.27;;
60006;SDS011;45863;50.336;3.536;2023-08-06T02:00:27;10.33;;;3.87;;
60006;SDS011;45863;50.336;3.536;2023-08-06T02:02:53;9.68;;;3.85;;
60006;SDS011;45863;50.336;3.536;2023-08-06T02:05:19;9.00;;;3.60;;
60006;SDS011;45863;50.336;3.536;2023-08-06T02:07:44;12.70;;;4.27;;
60006;SDS011;45863;50.336;3.536;2023-08-06T02:10:09;8.57;;;3.15;;
60006;SDS011;45863;50.336;3.536;2023-08-06T02:12:34;12.43;;;3.78;;
60006;SDS011;45863;50.336;3.536;2023-08-06T02:14:59;13.87;;;4.30;;
60006;SDS011;45863;50.336;3.536;2023-08-06T02:17:25;9.85;;;4.70;;
60006;SDS011;45863;50.336;3.536;2023-08-06T02:19:50;16.47;;;4.37;;
60006;SDS011;45863;50.336;3.536;2023-08-06T02:22:15;9.57;;;4.47;;
60006;SDS011;45863;50.336;3.536;2023-08-06T02:24:40;10.63;;;4.55;;
60006;SDS011;45863;50.336;3.536;2023-08-06T02:27:06;11.32;;;4.35;;
60006;SDS011;45863;50.336;3.536;2023-08-06T02:29:31;12.60;;;4.28;;
60006;SDS011;45863;50.336;3.536;2023-08-06T02:31:56;7.57;;;3.73;;
60006;SDS011;45863;50.336;3.536;2023-08-06T02:34:21;7.65;;;3.58;;
60006;SDS011;45863;50.336;3.536;2023-08-06T02:36:46;13.90;;;4.03;;
60006;SDS011;45863;50.336;3.536;2023-08-06T02:39:12;9.13;;;3.40;;
60006;SDS011;45863;50.336;3.536;2023-08-06T02:41:37;9.63;;;3.53;;
60006;SDS011;45863;50.336;3.536;2023-08-06T02:44:02;9.43;;;2.90;;
60006;SDS011;45863;50.336;3.536;2023-08-06T02:46:27;13.00;;;4.05;;
60006;SDS011;45863;50.336;3.536;2023-08-06T02:48:53;10.77;;;3.60;;
60006;SDS011;45863;50.336;3.536;2023-08-06T02:51:18;7.10;;;2.70;;
60006;SDS011;45863;50.336;3.536;2023-08-06T02:53:43;9.23;;;3.65;;
60006;SDS011;45863;50.336;3.536;2023-08-06T02:56:08;10.20;;;3.60;;
60006;SDS011;45863;50.336;3.536;2023-08-06T02:58:33;14.37;;;3.93;;
60006;SDS011;45863;50.336;3.536;2023-08-06T03:01:02;9.48;;;4.30;;
60006;SDS011;45863;50.336;3.536;2023-08-06T03:03:29;13.02;;;4.57;;
60006;SDS011;45863;50.336;3.536;2023-08-06T03:05:54;13.25;;;4.25;;
60006;SDS011;45863;50.336;3.536;2023-08-06T03:08:19;14.98;;;4.70;;
60006;SDS011;45863;50.336;3.536;2023-08-06T03:10:47;13.05;;;4.32;;
60006;SDS011;45863;50.336;3.536;2023-08-06T03:13:12;18.98;;;5.00;;
60006;SDS011;45863;50.336;3.536;2023-08-06T03:15:38;14.27;;;4.73;;
60006;SDS011;45863;50.336;3.536;2023-08-06T03:18:03;14.30;;;5.77;;
60006;SDS011;45863;50.336;3.536;2023-08-06T03:20:28;11.40;;;4.80;;
60006;SDS011;45863;50.336;3.536;2023-08-06T03:22:53;17.63;;;4.65;;
60006;SDS011;45863;50.336;3.536;2023-08-06T03:25:18;12.57;;;5.60;;
60006;SDS011;45863;50.336;3.536;2023-08-06T03:27:44;15.65;;;5.22;;
60006;SDS011;45863;50.336;3.536;2023-08-06T03:30:09;19.05;;;6.05;;
60006;SDS011;45863;50.336;3.536;2023-08-06T03:32:34;15.50;;;6.38;;
60006;SDS011;45863;50.336;3.536;2023-08-06T03:35:00;17.05;;;6.60;;
60006;SDS011;45863;50.336;3.536;2023-08-06T03:37:25;22.40;;;7.00;;
60006;SDS011;45863;50.336;3.536;2023-08-06T03:39:50;17.57;;;7.40;;
60006;SDS011;45863;50.336;3.536;2023-08-06T03:42:15;18.97;;;7.73;;
60006;SDS011;45863;50.336;3.536;2023-08-06T03:44:40;17.95;;;7.70;;
60006;SDS011;45863;50.336;3.536;2023-08-06T03:47:06;20.73;;;8.03;;
60006;SDS011;45863;50.336;3.536;2023-08-06T03:49:31;19.77;;;8.32;;
60006;SDS011;45863;50.336;3.536;2023-08-06T03:51:56;36.28;;;9.18;;
60006;SDS011;45863;50.336;3.536;2023-08-06T03:54:21;28.60;;;8.43;;
60006;SDS011;45863;50.336;3.536;2023-08-06T03:56:47;18.93;;;8.43;;
60006;SDS011;45863;50.336;3.536;2023-08-06T03:59:12;24.03;;;9.07;;
60006;SDS011;45863;50.336;3.536;2023-08-06T04:01:37;28.43;;;8.70;;
60006;SDS011;45863;50.336;3.536;2023-08-06T04:04:02;28.80;;;8.65;;
60006;SDS011;45863;50.336;3.536;2023-08-06T04:06:27;19.52;;;7.50;;
60006;SDS011;45863;50.336;3.536;2023-08-06T04:08:53;22.77;;;7.47;;
60006;SDS011;45863;50.336;3.536;2023-08-06T04:11:18;22.58;;;7.57;;
60006;SDS011;45863;50.336;3.536;2023-08-06T04:13:43;20.77;;;6.97;;
60006;SDS011;45863;50.336;3.536;2023-08-06T04:16:09;21.33;;;8.27;;
60006;SDS011;45863;50.336;3.536;2023-08-06T04:18:34;22.13;;;6.80;;
60006;SDS011;45863;50.336;3.536;2023-08-06T04:21:01;20.60;;;6.57;;
60006;SDS011;45863;50.336;3.536;2023-08-06T04:23:26;16.42;;;6.63;;
60006;SDS011;45863;50.336;3.536;2023-08-06T04:25:51;24.67;;;6.70;;
60006;SDS011;45863;50.336;3.536;2023-08-06T04:28:16;18.88;;;7.57;;
60006;SDS011;45863;50.336;3.536;2023-08-06T04:30:42;21.75;;;6.40;;
60006;SDS011;45863;50.336;3.536;2023-08-06T04:33:07;20.70;;;6.40;;
60006;SDS011;45863;50.336;3.536;2023-08-06T04:35:32;21.73;;;5.80;;
60006;SDS011;45863;50.336;3.536;2023-08-06T04:37:57;22.17;;;6.18;;
60006;SDS011;45863;50.336;3.536;2023-08-06T04:40:23;15.60;;;5.90;;
60006;SDS011;45863;50.336;3.536;2023-08-06T04:42:48;19.70;;;5.43;;
60006;SDS011;45863;50.336;3.536;2023-08-06T04:45:13;21.23;;;6.37;;
60006;SDS011;45863;50.336;3.536;2023-08-06T04:47:38;18.15;;;5.82;;
60006;SDS011;45863;50.336;3.536;2023-08-06T04:50:04;16.65;;;5.55;;
60006;SDS011;45863;50.336;3.536;2023-08-06T04:52:29;18.23;;;5.72;;
60006;SDS011;45863;50.336;3.536;2023-08-06T04:54:57;23.58;;;5.68;;
60006;SDS011;45863;50.336;3.536;2023-08-06T04:57:22;14.93;;;5.82;;
60006;SDS011;45863;50.336;3.536;2023-08-06T04:59:47;20.45;;;5.53;;
60006;SDS011;45863;50.336;3.536;2023-08-06T05:02:12;15.82;;;5.75;;
60006;SDS011;45863;50.336;3.536;2023-08-06T05:04:38;19.87;;;4.80;;
60006;SDS011;45863;50.336;3.536;2023-08-06T05:07:03;15.52;;;5.15;;
60006;SDS011;45863;50.336;3.536;2023-08-06T05:09:28;23.83;;;4.90;;
60006;SDS011;45863;50.336;3.536;2023-08-06T05:11:54;19.63;;;4.90;;
60006;SDS011;45863;50.336;3.536;2023-08-06T05:14:19;19.60;;;5.13;;
60006;SDS011;45863;50.336;3.536;2023-08-06T05:16:44;18.75;;;5.35;;
60006;SDS011;45863;50.336;3.536;2023-08-06T05:19:09;18.13;;;5.40;;
60006;SDS011;45863;50.336;3.536;2023-08-06T05:21:34;16.70;;;5.10;;
60006;SDS011;45863;50.336;3.536;2023-08-06T05:24:00;23.77;;;5.10;;
60006;SDS011;45863;50.336;3.536;2023-08-06T05:26:25;17.77;;;4.68;;
60006;SDS011;45863;50.336;3.536;2023-08-06T05:28:50;19.83;;;4.40;;
60006;SDS011;45863;50.336;3.536;2023-08-06T05:31:15;20.77;;;5.00;;
60006;SDS011;45863;50.336;3.536;2023-08-06T05:33:41;21.75;;;4.70;;
60006;SDS011;45863;50.336;3.536;2023-08-06T05:36:06;17.55;;;5.03;;
60006;SDS011;45863;50.336;3.536;2023-08-06T05:38:31;18.60;;;5.28;;
60006;SDS011;45863;50.336;3.536;2023-08-06T05:40:56;18.58;;;5.35;;
60006;SDS011;45863;50.336;3.536;2023-08-06T05:43:22;17.95;;;5.30;;
60006;SDS011;45863;50.336;3.536;2023-08-06T05:45:48;19.27;;;5.05;;
60006;SDS011;45863;50.336;3.536;2023-08-06T05:48:14;11.02;;;4.50;;
60006;SDS011;45863;50.336;3.536;2023-08-06T05:50:39;15.82;;;5.00;;
60006;SDS011;45863;50.336;3.536;2023-08-06T05:53:04;12.65;;;5.30;;
60006;SDS011;45863;50.336;3.536;2023-08-06T05:55:29;12.07;;;4.72;;
60006;SDS011;45863;50.336;3.536;2023-08-06T05:57:56;14.20;;;5.35;;
60006;SDS011;45863;50.336;3.536;2023-08-06T06:00:21;20.02;;;5.05;;
60006;SDS011;45863;50.336;3.536;2023-08-06T06:02:47;15.70;;;5.03;;
60006;SDS011;45863;50.336;3.536;2023-08-06T06:05:12;13.70;;;5.40;;
60006;SDS011;45863;50.336;3.536;2023-08-06T06:07:37;14.70;;;4.80;;
60006;SDS011;45863;50.336;3.536;2023-08-06T06:10:02;15.15;;;4.80;;
60006;SDS011;45863;50.336;3.536;2023-08-06T06:12:28;16.55;;;5.70;;
60006;SDS011;45863;50.336;3.536;2023-08-06T06:14:53;16.48;;;5.47;;
60006;SDS011;45863;50.336;3.536;2023-08-06T06:17:18;16.48;;;4.68;;
60006;SDS011;45863;50.336;3.536;2023-08-06T06:19:43;13.35;;;4.70;;
60006;SDS011;45863;50.336;3.536;2023-08-06T06:22:09;13.07;;;4.83;;
60006;SDS011;45863;50.336;3.536;2023-08-06T06:24:34;22.83;;;5.20;;
60006;SDS011;45863;50.336;3.536;2023-08-06T06:26:59;16.50;;;4.32;;
60006;SDS011;45863;50.336;3.536;2023-08-06T06:29:25;17.63;;;4.30;;
60006;SDS011;45863;50.336;3.536;2023-08-06T06:31:50;12.80;;;4.17;;
60006;SDS011;45863;50.336;3.536;2023-08-06T06:34:15;13.15;;;4.13;;
60006;SDS011;45863;50.336;3.536;2023-08-06T06:36:40;14.05;;;4.22;;
60006;SDS011;45863;50.336;3.536;2023-08-06T06:39:06;12.73;;;4.38;;
60006;SDS011;45863;50.336;3.536;2023-08-06T06:41:31;15.85;;;4.22;;
60006;SDS011;45863;50.336;3.536;2023-08-06T06:43:58;14.65;;;4.95;;
60006;SDS011;45863;50.336;3.536;2023-08-06T06:46:23;12.52;;;4.40;;
60006;SDS011;45863;50.336;3.536;2023-08-06T06:48:48;12.50;;;4.93;;
60006;SDS011;45863;50.336;3.536;2023-08-06T06:51:13;14.55;;;5.18;;
60006;SDS011;45863;50.336;3.536;2023-08-06T06:53:38;20.45;;;5.93;;
60006;SDS011;45863;50.336;3.536;2023-08-06T06:56:04;13.85;;;5.88;;
60006;SDS011;45863;50.336;3.536;2023-08-06T06:58:32;17.40;;;5.90;;
60006;SDS011;45863;50.336;3.536;2023-08-06T07:00:58;13.60;;;5.10;;
60006;SDS011;45863;50.336;3.536;2023-08-06T07:03:23;18.52;;;6.10;;
60006;SDS011;45863;50.336;3.536;2023-08-06T07:05:48;19.25;;;5.68;;
60006;SDS011;45863;50.336;3.536;2023-08-06T07:08:14;12.88;;;6.28;;
60006;SDS011;45863;50.336;3.536;2023-08-06T07:10:40;12.75;;;5.80;;
60006;SDS011;45863;50.336;3.536;2023-08-06T07:13:06;17.92;;;5.63;;
60006;SDS011;45863;50.336;3.536;2023-08-06T07:15:31;14.20;;;5.55;;
60006;SDS011;45863;50.336;3.536;2023-08-06T07:17:56;13.15;;;5.03;;
60006;SDS011;45863;50.336;3.536;2023-08-06T07:20:22;16.27;;;5.13;;
60006;SDS011;45863;50.336;3.536;2023-08-06T07:22:47;11.05;;;5.18;;
60006;SDS011;45863;50.336;3.536;2023-08-06T07:25:12;11.63;;;5.10;;
60006;SDS011;45863;50.336;3.536;2023-08-06T07:27:38;11.68;;;4.75;;
60006;SDS011;45863;50.336;3.536;2023-08-06T07:30:03;13.75;;;5.25;;
60006;SDS011;45863;50.336;3.536;2023-08-06T07:32:30;15.48;;;4.72;;
60006;SDS011;45863;50.336;3.536;2023-08-06T07:34:55;11.82;;;4.50;;
60006;SDS011;45863;50.336;3.536;2023-08-06T07:37:24;11.13;;;4.18;;
60006;SDS011;45863;50.336;3.536;2023-08-06T07:39:49;14.13;;;4.80;;
60006;SDS011;45863;50.336;3.536;2023-08-06T07:42:14;11.70;;;4.10;;
60006;SDS011;45863;50.336;3.536;2023-08-06T07:44:40;10.43;;;4.83;;
60006;SDS011;45863;50.336;3.536;2023-08-06T07:47:05;12.30;;;3.97;;
60006;SDS011;45863;50.336;3.536;2023-08-06T07:49:30;14.75;;;4.00;;
60006;SDS011;45863;50.336;3.536;2023-08-06T07:51:55;13.07;;;4.27;;
60006;SDS011;45863;50.336;3.536;2023-08-06T07:54:21;11.95;;;3.83;;
60006;SDS011;45863;50.336;3.536;2023-08-06T07:56:46;15.50;;;4.22;;
60006;SDS011;45863;50.336;3.536;2023-08-06T07:59:12;13.07;;;4.38;;
60006;SDS011;45863;50.336;3.536;2023-08-06T08:01:37;15.53;;;4.20;;
60006;SDS011;45863;50.336;3.536;2023-08-06T08:04:04;9.65;;;4.78;;
60006;SDS011;45863;50.336;3.536;2023-08-06T08:06:30;12.63;;;5.18;;
60006;SDS011;45863;50.336;3.536;2023-08-06T08:08:55;15.38;;;5.30;;
60006;SDS011;45863;50.336;3.536;2023-08-06T08:11:20;13.20;;;5.85;;
60006;SDS011;45863;50.336;3.536;2023-08-06T08:13:45;14.02;;;5.68;;
60006;SDS011;45863;50.336;3.536;2023-08-06T08:16:11;15.00;;;5.43;;
60006;SDS011;45863;50.336;3.536;2023-08-06T08:18:36;14.15;;;5.82;;
60006;SDS011;45863;50.336;3.536;2023-08-06T08:21:01;14.63;;;5.63;;
60006;SDS011;45863;50.336;3.536;2023-08-06T08:23:26;15.35;;;5.18;;
60006;SDS011;45863;50.336;3.536;2023-08-06T08:25:51;13.40;;;4.93;;
60006;SDS011;45863;50.336;3.536;2023-08-06T08:28:17;12.43;;;4.55;;
60006;SDS011;45863;50.336;3.536;2023-08-06T08:30:42;12.57;;;4.23;;
60006;SDS011;45863;50.336;3.536;2023-08-06T08:33:07;9.95;;;4.68;;
60006;SDS011;45863;50.336;3.536;2023-08-06T08:35:33;15.68;;;4.45;;
60006;SDS011;45863;50.336;3.536;2023-08-06T08:37:58;13.35;;;4.88;;
60006;SDS011;45863;50.336;3.536;2023-08-06T08:40:23;13.50;;;4.83;;
60006;SDS011;45863;50.336;3.536;2023-08-06T08:42:51;14.40;;;4.90;;
60006;SDS011;45863;50.336;3.536;2023-08-06T08:45:17;9.52;;;4.28;;
60006;SDS011;45863;50.336;3.536;2023-08-06T08:47:45;10.13;;;4.10;;
60006;SDS011;45863;50.336;3.536;2023-08-06T08:50:12;14.35;;;4.05;;
60006;SDS011;45863;50.336;3.536;2023-08-06T08:52:39;13.15;;;4.05;;
60006;SDS011;45863;50.336;3.536;2023-08-06T08:55:08;8.50;;;3.83;;
60006;SDS011;45863;50.336;3.536;2023-08-06T08:57:33;15.57;;;4.22;;
60006;SDS011;45863;50.336;3.536;2023-08-06T08:59:58;10.70;;;3.75;;
60006;SDS011;45863;50.336;3.536;2023-08-06T09:02:24;14.57;;;4.40;;
60006;SDS011;45863;50.336;3.536;2023-08-06T09:04:50;9.15;;;3.88;;
60006;SDS011;45863;50.336;3.536;2023-08-06T09:07:17;8.70;;;4.30;;
60006;SDS011;45863;50.336;3.536;2023-08-06T09:09:43;10.40;;;4.18;;
60006;SDS011;45863;50.336;3.536;2023-08-06T09:12:11;11.52;;;3.35;;
60006;SDS011;45863;50.336;3.536;2023-08-06T09:14:37;13.63;;;4.05;;
60006;SDS011;45863;50.336;3.536;2023-08-06T09:17:04;11.32;;;3.70;;
60006;SDS011;45863;50.336;3.536;2023-08-06T09:19:29;9.35;;;3.60;;
60006;SDS011;45863;50.336;3.536;2023-08-06T09:21:55;8.80;;;3.75;;
60006;SDS011;45863;50.336;3.536;2023-08-06T09:24:20;12.05;;;4.22;;
60006;SDS011;45863;50.336;3.536;2023-08-06T09:26:47;10.13;;;3.83;;
60006;SDS011;45863;50.336;3.536;2023-08-06T09:29:12;6.77;;;3.87;;
60006;SDS011;45863;50.336;3.536;2023-08-06T09:31:44;9.70;;;3.28;;
60006;SDS011;45863;50.336;3.536;2023-08-06T09:34:19;11.13;;;3.75;;
60006;SDS011;45863;50.336;3.536;2023-08-06T09:36:46;9.52;;;3.38;;
60006;SDS011;45863;50.336;3.536;2023-08-06T09:39:18;11.32;;;3.78;;
60006;SDS011;45863;50.336;3.536;2023-08-06T09:41:43;9.15;;;3.88;;
60006;SDS011;45863;50.336;3.536;2023-08-06T09:44:19;7.22;;;3.58;;
60006;SDS011;45863;50.336;3.536;2023-08-06T09:49:19;12.52;;;4.07;;
60006;SDS011;45863;50.336;3.536;2023-08-06T09:51:45;11.82;;;3.60;;
60006;SDS011;45863;50.336;3.536;2023-08-06T09:54:14;9.68;;;3.45;;
60006;SDS011;45863;50.336;3.536;2023-08-06T09:56:40;7.07;;;3.63;;
60006;SDS011;45863;50.336;3.536;2023-08-06T09:59:07;7.70;;;3.65;;
60006;SDS011;45863;50.336;3.536;2023-08-06T10:01:33;9.85;;;3.13;;
60006;SDS011;45863;50.336;3.536;2023-08-06T10:03:59;10.88;;;4.10;;
60006;SDS011;45863;50.336;3.536;2023-08-06T10:06:25;10.18;;;3.63;;
60006;SDS011;45863;50.336;3.536;2023-08-06T10:08:51;6.30;;;2.80;;
60006;SDS011;45863;50.336;3.536;2023-08-06T10:11:16;6.37;;;3.07;;
60006;SDS011;45863;50.336;3.536;2023-08-06T10:13:42;11.48;;;3.00;;
60006;SDS011;45863;50.336;3.536;2023-08-06T10:16:08;8.02;;;2.72;;
60006;SDS011;45863;50.336;3.536;2023-08-06T10:18:33;9.40;;;3.05;;
60006;SDS011;45863;50.336;3.536;2023-08-06T10:21:00;11.15;;;3.33;;
60006;SDS011;45863;50.336;3.536;2023-08-06T10:23:35;11.43;;;3.35;;
60006;SDS011;45863;50.336;3.536;2023-08-06T10:26:02;8.52;;;3.25;;
60006;SDS011;45863;50.336;3.536;2023-08-06T10:28:34;10.25;;;2.88;;
60006;SDS011;45863;50.336;3.536;2023-08-06T10:31:02;9.05;;;3.88;;
60006;SDS011;45863;50.336;3.536;2023-08-06T10:33:45;11.75;;;3.30;;
60006;SDS011;45863;50.336;3.536;2023-08-06T10:38:43;6.93;;;2.80;;
60006;SDS011;45863;50.336;3.536;2023-08-06T10:41:09;11.55;;;3.53;;
60006;SDS011;45863;50.336;3.536;2023-08-06T10:43:39;7.85;;;3.35;;
60006;SDS011;45863;50.336;3.536;2023-08-06T10:46:09;9.07;;;3.10;;
60006;SDS011;45863;50.336;3.536;2023-08-06T10:51:01;8.60;;;4.30;;
60006;SDS011;45863;50.336;3.536;2023-08-06T10:53:27;7.45;;;2.92;;
60006;SDS011;45863;50.336;3.536;2023-08-06T10:55:52;12.90;;;3.73;;
60006;SDS011;45863;50.336;3.536;2023-08-06T10:58:17;10.48;;;3.47;;
60006;SDS011;45863;50.336;3.536;2023-08-06T11:00:42;11.32;;;3.33;;
60006;SDS011;45863;50.336;3.536;2023-08-06T11:03:08;11.80;;;3.75;;
60006;SDS011;45863;50.336;3.536;2023-08-06T11:05:33;10.32;;;4.05;;
60006;SDS011;45863;50.336;3.536;2023-08-06T11:07:58;10.15;;;3.17;;
60006;SDS011;45863;50.336;3.536;2023-08-06T11:10:24;10.30;;;2.90;;
60006;SDS011;45863;50.336;3.536;2023-08-06T11:12:49;8.45;;;3.45;;
60006;SDS011;45863;50.336;3.536;2023-08-06T11:15:14;11.00;;;3.15;;
60006;SDS011;45863;50.336;3.536;2023-08-06T11:17:40;8.98;;;3.70;;
60006;SDS011;45863;50.336;3.536;2023-08-06T11:20:05;7.60;;;3.10;;
60006;SDS011;45863;50.336;3.536;2023-08-06T11:22:31;12.40;;;3.10;;
60006;SDS011;45863;50.336;3.536;2023-08-06T11:24:56;10.13;;;3.35;;
60006;SDS011;45863;50.336;3.536;2023-08-06T11:27:22;8.40;;;2.92;;
60006;SDS011;45863;50.336;3.536;2023-08-06T11:29:47;11.38;;;4.35;;
60006;SDS011;45863;50.336;3.536;2023-08-06T11:32:12;12.38;;;3.50;;
60006;SDS011;45863;50.336;3.536;2023-08-06T11:34:40;7.63;;;3.28;;
60006;SDS011;45863;50.336;3.536;2023-08-06T11:37:06;9.65;;;3.78;;
60006;SDS011;45863;50.336;3.536;2023-08-06T11:39:34;9.95;;;3.30;;
60006;SDS011;45863;50.336;3.536;2023-08-06T11:41:59;9.77;;;3.03;;
60006;SDS011;45863;50.336;3.536;2023-08-06T11:44:31;8.98;;;3.00;;
60006;SDS011;45863;50.336;3.536;2023-08-06T11:46:58;11.93;;;3.17;;
60006;SDS011;45863;50.336;3.536;2023-08-06T11:52:08;9.88;;;3.35;;
60006;SDS011;45863;50.336;3.536;2023-08-06T11:54:33;9.65;;;3.45;;
60006;SDS011;45863;50.336;3.536;2023-08-06T11:56:59;9.88;;;2.65;;
60006;SDS011;45863;50.336;3.536;2023-08-06T11:59:25;9.00;;;2.47;;
60006;SDS011;45863;50.336;3.536;2023-08-06T12:01:50;10.82;;;2.40;;
60006;SDS011;45863;50.336;3.536;2023-08-06T12:04:17;7.18;;;1.83;;
60006;SDS011;45863;50.336;3.536;2023-08-06T12:06:42;10.80;;;2.40;;
60006;SDS011;45863;50.336;3.536;2023-08-06T12:09:08;13.65;;;3.92;;
60006;SDS011;45863;50.336;3.536;2023-08-06T12:11:33;7.63;;;2.70;;
60006;SDS011;45863;50.336;3.536;2023-08-06T12:13:58;6.40;;;3.00;;
60006;SDS011;45863;50.336;3.536;2023-08-06T12:16:24;6.47;;;2.72;;
60006;SDS011;45863;50.336;3.536;2023-08-06T12:18:49;6.00;;;2.67;;
60006;SDS011;45863;50.336;3.536;2023-08-06T12:21:15;6.18;;;3.00;;
60006;SDS011;45863;50.336;3.536;2023-08-06T12:23:40;8.30;;;2.67;;
60006;SDS011;45863;50.336;3.536;2023-08-06T12:26:05;9.83;;;2.80;;
60006;SDS011;45863;50.336;3.536;2023-08-06T12:28:30;7.53;;;2.60;;
60006;SDS011;45863;50.336;3.536;2023-08-06T12:30:56;8.33;;;2.73;;
60006;SDS011;45863;50.336;3.536;2023-08-06T12:33:21;7.47;;;2.50;;
60006;SDS011;45863;50.336;3.536;2023-08-06T12:35:46;10.77;;;2.60;;
60006;SDS011;45863;50.336;3.536;2023-08-06T12:38:11;6.55;;;2.20;;
60006;SDS011;45863;50.336;3.536;2023-08-06T12:40:38;7.65;;;2.17;;
60006;SDS011;45863;50.336;3.536;2023-08-06T12:43:03;10.20;;;2.40;;
60006;SDS011;45863;50.336;3.536;2023-08-06T12:45:28;8.30;;;2.55;;
60006;SDS011;45863;50.336;3.536;2023-08-06T12:47:54;8.30;;;2.40;;
60006;SDS011;45863;50.336;3.536;2023-08-06T12:50:19;7.40;;;2.47;;
60006;SDS011;45863;50.336;3.536;2023-08-06T12:52:44;9.73;;;3.33;;
60006;SDS011;45863;50.336;3.536;2023-08-06T12:55:09;7.03;;;2.67;;
60006;SDS011;45863;50.336;3.536;2023-08-06T12:57:34;13.93;;;4.25;;
60006;SDS011;45863;50.336;3.536;2023-08-06T13:00:00;8.60;;;3.08;;
60006;SDS011;45863;50.336;3.536;2023-08-06T13:02:25;8.30;;;2.13;;
60006;SDS011;45863;50.336;3.536;2023-08-06T13:04:54;5.03;;;1.90;;
60006;SDS011;45863;50.336;3.536;2023-08-06T13:07:19;6.10;;;2.07;;
60006;SDS011;45863;50.336;3.536;2023-08-06T13:09:45;6.28;;;2.08;;
60006;SDS011;45863;50.336;3.536;2023-08-06T13:12:10;7.87;;;2.10;;
60006;SDS011;45863;50.336;3.536;2023-08-06T13:14:35;8.43;;;2.10;;
60006;SDS011;45863;50.336;3.536;2023-08-06T13:17:00;5.03;;;2.40;;
60006;SDS011;45863;50.336;3.536;2023-08-06T13:19:26;7.65;;;2.42;;
60006;SDS011;45863;50.336;3.536;2023-08-06T13:24:16;5.47;;;1.93;;
60006;SDS011;45863;50.336;3.536;2023-08-06T13:26:41;6.23;;;1.90;;
60006;SDS011;45863;50.336;3.536;2023-08-06T13:29:06;5.27;;;2.20;;
60006;SDS011;45863;50.336;3.536;2023-08-06T13:31:32;8.25;;;2.00;;
60006;SDS011;45863;50.336;3.536;2023-08-06T13:33:57;6.00;;;2.30;;
60006;SDS011;45863;50.336;3.536;2023-08-06T13:36:23;6.43;;;1.77;;
60006;SDS011;45863;50.336;3.536;2023-08-06T13:38:48;8.85;;;1.95;;
60006;SDS011;45863;50.336;3.536;2023-08-06T13:41:14;4.85;;;1.75;;
60006;SDS011;45863;50.336;3.536;2023-08-06T13:43:39;7.72;;;2.20;;
60006;SDS011;45863;50.336;3.536;2023-08-06T13:46:04;5.47;;;2.05;;
60006;SDS011;45863;50.336;3.536;2023-08-06T13:48:30;5.90;;;1.75;;
60006;SDS011;45863;50.336;3.536;2023-08-06T13:50:55;5.93;;;1.92;;
60006;SDS011;45863;50.336;3.536;2023-08-06T13:53:20;5.20;;;1.47;;
60006;SDS011;45863;50.336;3.536;2023-08-06T13:55:45;5.57;;;1.43;;
60006;SDS011;45863;50.336;3.536;2023-08-06T13:58:11;5.27;;;1.80;;
60006;SDS011;45863;50.336;3.536;2023-08-06T14:00:36;7.53;;;2.20;;
60006;SDS011;45863;50.336;3.536;2023-08-06T14:03:01;6.82;;;2.20;;
60006;SDS011;45863;50.336;3.536;2023-08-06T14:05:26;7.82;;;2.50;;
60006;SDS011;45863;50.336;3.536;2023-08-06T14:07:52;4.88;;;2.00;;
60006;SDS011;45863;50.336;3.536;2023-08-06T14:10:17;4.33;;;1.63;;
60006;SDS011;45863;50.336;3.536;2023-08-06T14:12:42;6.43;;;1.73;;
60006;SDS011;45863;50.336;3.536;2023-08-06T14:15:07;8.02;;;1.80;;
60006;SDS011;45863;50.336;3.536;2023-08-06T14:17:33;4.47;;;1.50;;
60006;SDS011;45863;50.336;3.536;2023-08-06T14:19:58;9.53;;;2.03;;
60006;SDS011;45863;50.336;3.536;2023-08-06T14:22:25;6.28;;;1.90;;
60006;SDS011;45863;50.336;3.536;2023-08-06T14:24:50;5.70;;;1.48;;
60006;SDS011;45863;50.336;3.536;2023-08-06T14:27:16;5.50;;;1.40;;
60006;SDS011;45863;50.336;3.536;2023-08-06T14:29:41;7.30;;;1.70;;
60006;SDS011;45863;50.336;3.536;2023-08-06T14:32:06;5.60;;;1.70;;
60006;SDS011;45863;50.336;3.536;2023-08-06T14:34:31;8.52;;;2.30;;
60006;SDS011;45863;50.336;3.536;2023-08-06T14:36:57;7.33;;;2.03;;
60006;SDS011;45863;50.336;3.536;2023-08-06T14:39:22;7.37;;;2.30;;
60006;SDS011;45863;50.336;3.536;2023-08-06T14:41:47;7.18;;;1.70;;
60006;SDS011;45863;50.336;3.536;2023-08-06T14:44:13;6.32;;;1.90;;
60006;SDS011;45863;50.336;3.536;2023-08-06T14:46:38;5.30;;;1.73;;
60006;SDS011;45863;50.336;3.536;2023-08-06T14:49:03;4.57;;;1.75;;